Wrangell, AK

10:44 AM AKDT on July 13, 2014 (GMT -0800)
Wrangell (PAWG) Elev 43 ft | 56.48 °N, 132.37 °W | Change Station

Current weather conditions updated 8 minutes ago

Partly Cloudy
Partly Cloudy
64 °F
Feels Like 64 °F
N
6
Wind Variable Wind from NW

Today is forecast to be Cooler than yesterday.

Today
High -- | Low -- °F
--% Chance of Precip.
Yesterday
High -- | Low -- °F
Precip. -- in
4:18 AM 9:31 PM
Full, 97% visible
Pressure 30.23 in
Visibility 10.0 miles
Clouds Few 4000 ft
Few 9000 ft
Dew Point 55 °F
Humidity 73%
Rainfall 0.00 in
Snow Depth Not available.
UV 6 out of 12
Pollen Not available.
Air Quality Not available.
Flu Activity Sporadic
METAR PAWG 131836Z 32005KT 10SM FEW040 FEW090 18/13 A3023 RMK AO1 WEA:NONE (KB)

More Conditions Fewer Conditions

Pressure 30.23 in
Visibility 10.0 miles
Clouds Few 4000 ft
Few 9000 ft
Dew Point 55 °F
Humidity 73%
Rainfall 0.00 in
Snow Depth Not available.
UV 6 out of 12
Pollen Not available.
Air Quality Not available.
Flu Activity Sporadic
METAR PAWG 131836Z 32005KT 10SM FEW040 FEW090 18/13 A3023 RMK AO1 WEA:NONE (KB)

More Conditions Fewer Conditions

10-Day Weather Forecast

Almanac

Astronomy

Jul. 13, 2014 Rise Set
Actual Time 4:18 AM AKDT 9:31 PM AKDT
Civil Twilight 3:19 AM AKDT 10:29 PM AKDT
Nautical Twilight 1:27 AM AKDT 12:22 AM AKDT
Astronomical Twilight Sun does not rise Sun does not rise
Moon 9:45 PM AKDT 6:29 AM AKDT
Length of Visible Light 19h 09m
Length of Day
17h 12m
Tomorrow will be 2m 45s shorter.
Full, 97% of the Moon is Illuminated
Today
Full
Jul 18
Last Quarter
Jul 26
New
Aug 3
First Quarter
Aug 10
Full

Today's Extremes

State Highs State Lows

Community

WunderPhotos

Upload Photos

1,733,324 photos uploaded!

Nearby

Snow Depth

Station Depth Elevation
Long Lake 0 in 820 ft
Upper Tsaina River 0 in 1750 ft
Moraine 0 in 2100 ft
Grouse Creek Divide 0 in 700 ft
Turnagain Pass 0 in 1880 ft

Earthquake Activity

City Distance Mag. Time & Date
No recent earthquake activity has been reported nearby.
Minimum magnitude displayed is 2.5.

Coastal Water Temperatures

Place Temperature
No Stations Reporting

Nearby Weather Stations

Station Location Temp. Heat Index Dew Point Humidity Wind Precip. Elev Updated Type
RAWS ZAREMBO AK, Point Baker, AK 75 °F 77 °F 61 °F 62% North  at  0 mph 0.00 in / hr 899 ft 9:55 AM AKDT MADIS

Show More Stations Show Fewer Stations